Time;durP1;ratioP1;P1;durP2;ratioP2;P2;SDS_P1;SDS_P2;PMS_P1;PMS_P2;Temp;Humidity;BMP_temperature;BMP_pressure;BME280_temperature;BME280_humidity;BME280_pressure;Samples;Min_cycle;Max_cycle;Signal;HPM_P1;HPM_P2
2022/01/09 00:00:19;;;;;;;1.43;1.43;;;4.40;99.90;;;;;;2613941;54;20372;-80
2022/01/09 00:02:47;;;;;;;2.37;2.17;;;4.40;99.90;;;;;;2614241;47;20454;-80
2022/01/09 00:05:14;;;;;;;1.90;1.80;;;4.40;99.90;;;;;;2615195;47;20427;-80
2022/01/09 00:07:40;;;;;;;1.80;1.70;;;4.40;99.90;;;;;;2615356;54;20532;-80
2022/01/09 00:10:07;;;;;;;2.30;2.20;;;4.40;99.90;;;;;;2613967;47;20405;-82
2022/01/09 00:12:34;;;;;;;2.77;2.13;;;4.40;99.90;;;;;;2616142;39;21025;-80
2022/01/09 00:15:00;;;;;;;2.13;1.93;;;4.40;99.90;;;;;;2615486;39;20821;-81
2022/01/09 00:17:26;;;;;;;2.20;2.00;;;4.40;99.90;;;;;;2613676;46;20408;-79
2022/01/09 00:19:51;;;;;;;1.70;1.60;;;4.40;99.90;;;;;;2615712;54;20411;-79
2022/01/09 00:22:25;;;;;;;2.30;2.20;;;4.40;99.90;;;;;;2617458;46;20503;-77
2022/01/09 00:24:51;;;;;;;1.30;1.30;;;4.40;99.90;;;;;;2622492;54;21073;-80
2022/01/09 00:27:16;;;;;;;2.03;1.70;;;4.40;99.90;;;;;;2612927;47;20421;-80
2022/01/09 00:29:44;;;;;;;1.40;1.40;;;4.40;99.90;;;;;;2614385;54;21507;-79
2022/01/09 00:32:10;;;;;;;1.73;1.63;;;4.40;99.90;;;;;;2615616;54;20414;-79
2022/01/09 00:34:36;;;;;;;3.57;1.80;;;4.40;99.90;;;;;;2613425;47;20439;-80
2022/01/09 00:37:02;;;;;;;1.60;1.50;;;4.40;99.90;;;;;;2614494;54;20427;-80
2022/01/09 00:39:29;;;;;;;2.20;1.53;;;4.40;99.90;;;;;;2614450;39;20817;-80
2022/01/09 00:41:55;;;;;;;2.00;1.80;;;4.50;99.90;;;;;;2614586;54;20515;-81
2022/01/09 00:44:21;;;;;;;1.53;1.43;;;4.50;99.90;;;;;;2613149;47;20419;-80
2022/01/09 00:46:47;;;;;;;1.60;1.40;;;4.50;99.90;;;;;;2614602;39;20289;-81
2022/01/09 00:49:13;;;;;;;1.90;1.80;;;4.50;99.90;;;;;;2614858;47;20435;-81
2022/01/09 00:51:39;;;;;;;1.50;1.40;;;4.60;99.90;;;;;;2613567;47;21000;-81
2022/01/09 00:54:06;;;;;;;2.00;1.90;;;4.60;99.90;;;;;;2613346;54;20407;-79
2022/01/09 00:56:33;;;;;;;1.50;1.40;;;4.60;99.90;;;;;;2614872;54;20440;-80
2022/01/09 00:58:59;;;;;;;1.60;1.40;;;4.60;99.90;;;;;;2614138;47;20426;-81
2022/01/09 01:01:25;;;;;;;1.70;1.60;;;4.60;99.90;;;;;;2614443;54;20419;-80
2022/01/09 01:03:51;;;;;;;1.10;1.10;;;4.60;99.90;;;;;;2614192;47;20223;-79
2022/01/09 01:06:18;;;;;;;1.60;1.50;;;4.60;99.90;;;;;;2613923;39;20948;-81
2022/01/09 01:08:45;;;;;;;1.20;1.10;;;4.60;99.90;;;;;;2614426;46;20443;-79
2022/01/09 01:11:12;;;;;;;1.20;1.20;;;4.60;99.90;;;;;;2614997;54;20580;-78
2022/01/09 01:13:39;;;;;;;1.20;1.20;;;4.60;99.90;;;;;;2614390;54;20419;-80
2022/01/09 01:16:04;;;;;;;1.00;0.90;;;4.60;99.90;;;;;;2613282;47;20488;-80
2022/01/09 01:18:30;;;;;;;1.70;1.60;;;4.70;99.90;;;;;;2614962;54;20470;-80
2022/01/09 01:20:56;;;;;;;1.50;1.40;;;4.60;99.90;;;;;;2613453;47;20516;-79
2022/01/09 01:23:22;;;;;;;1.43;1.33;;;4.60;99.90;;;;;;2614661;54;20267;-80
2022/01/09 01:25:51;;;;;;;1.43;1.33;;;4.70;99.90;;;;;;2613797;54;20178;-78
2022/01/09 01:28:18;;;;;;;1.10;1.00;;;4.70;99.90;;;;;;2613076;54;20170;-78
2022/01/09 01:30:44;;;;;;;1.37;1.27;;;4.70;99.90;;;;;;2614448;31;20865;-80
2022/01/09 01:33:09;;;;;;;1.63;1.53;;;4.70;99.90;;;;;;2614684;47;20411;-78
2022/01/09 01:35:35;;;;;;;1.30;1.20;;;4.70;99.90;;;;;;2614307;47;20195;-80
2022/01/09 01:38:01;;;;;;;1.50;1.40;;;4.60;99.90;;;;;;2613224;54;20242;-78
2022/01/09 01:40:27;;;;;;;1.33;1.23;;;4.70;99.90;;;;;;2613560;54;20447;-80
2022/01/09 01:42:53;;;;;;;0.93;0.93;;;4.70;99.90;;;;;;2613654;54;20411;-78
2022/01/09 01:45:19;;;;;;;1.33;1.20;;;4.70;99.90;;;;;;2613589;54;20155;-80
2022/01/09 01:47:45;;;;;;;1.30;1.20;;;4.70;99.90;;;;;;2612761;47;20358;-80
2022/01/09 01:50:13;;;;;;;1.40;1.30;;;4.70;99.90;;;;;;2613291;54;20486;-80
2022/01/09 01:52:44;;;;;;;1.30;1.20;;;4.80;99.90;;;;;;2613625;47;20415;-81
2022/01/09 01:55:12;;;;;;;0.80;0.80;;;4.80;99.90;;;;;;2613654;47;20432;-78
2022/01/09 01:57:40;;;;;;;1.30;1.20;;;4.80;99.90;;;;;;2612590;54;20496;-79
2022/01/09 02:00:09;;;;;;;1.00;1.00;;;4.80;99.90;;;;;;2613937;47;20983;-80
2022/01/09 02:02:35;;;;;;;1.13;1.03;;;4.80;99.90;;;;;;2613532;46;20446;-79
2022/01/09 02:05:04;;;;;;;6.13;2.03;;;4.70;99.90;;;;;;2614273;54;20523;-77
2022/01/09 02:07:30;;;;;;;1.40;1.30;;;4.70;99.90;;;;;;2614944;46;20440;-77
2022/01/09 02:09:56;;;;;;;1.37;1.07;;;4.70;99.90;;;;;;2614499;39;20816;-79
2022/01/09 02:12:22;;;;;;;1.40;1.30;;;4.80;99.90;;;;;;2614225;39;20525;-79
2022/01/09 02:14:48;;;;;;;1.53;1.43;;;4.80;99.90;;;;;;2613886;54;20412;-79
2022/01/09 02:17:19;;;;;;;1.17;1.00;;;4.70;99.90;;;;;;2614362;54;21007;-79
2022/01/09 02:19:58;;;;;;;1.03;1.03;;;4.80;99.90;;;;;;2614553;54;20431;-79
2022/01/09 02:22:26;;;;;;;1.77;1.63;;;4.80;99.90;;;;;;2613860;54;20443;-77
2022/01/09 02:24:52;;;;;;;1.60;1.40;;;4.90;99.90;;;;;;2613737;54;20389;-78
2022/01/09 02:27:18;;;;;;;2.03;1.77;;;4.90;99.90;;;;;;2612864;54;20438;-78
2022/01/09 02:29:48;;;;;;;1.60;1.50;;;5.00;99.90;;;;;;2614789;54;20503;-79
2022/01/09 02:32:19;;;;;;;1.93;1.50;;;5.00;99.90;;;;;;2614612;54;20408;-79
2022/01/09 02:34:47;;;;;;;3.37;1.60;;;5.00;99.90;;;;;;2612597;54;20411;-79
2022/01/09 02:37:13;;;;;;;2.07;1.90;;;5.00;99.90;;;;;;2613563;54;20427;-79
2022/01/09 02:39:39;;;;;;;2.93;1.60;;;5.10;99.90;;;;;;2613813;54;20435;-78
2022/01/09 02:42:16;;;;;;;1.13;1.10;;;5.10;99.90;;;;;;2614265;39;20977;-80
2022/01/09 02:44:42;;;;;;;2.30;1.30;;;5.10;99.90;;;;;;2613670;54;20769;-80
2022/01/09 02:47:08;;;;;;;2.10;1.30;;;5.00;99.90;;;;;;2613917;54;20416;-80
2022/01/09 02:49:33;;;;;;;1.60;1.50;;;5.00;99.90;;;;;;2613586;47;20986;-79
2022/01/09 02:52:04;;;;;;;2.00;1.80;;;5.00;99.90;;;;;;2612977;47;20418;-78
2022/01/09 02:57:14;;;;;;;2.43;2.20;;;5.10;99.90;;;;;;2613807;39;22057;-82
2022/01/09 02:59:40;;;;;;;1.90;1.80;;;5.10;99.90;;;;;;2613866;54;20419;-78
2022/01/09 03:02:06;;;;;;;1.80;1.70;;;5.00;99.90;;;;;;2612348;47;20671;-78
2022/01/09 03:04:32;;;;;;;1.93;1.83;;;4.90;99.90;;;;;;2613536;54;20471;-79
2022/01/09 03:06:59;;;;;;;3.90;2.60;;;4.90;99.90;;;;;;2614723;54;20276;-79
2022/01/09 03:09:24;;;;;;;2.70;2.50;;;4.90;99.90;;;;;;2613437;54;20180;-81
2022/01/09 03:11:52;;;;;;;4.50;3.90;;;4.90;99.90;;;;;;2613706;54;20408;-81
2022/01/09 03:14:18;;;;;;;4.00;3.17;;;4.90;99.90;;;;;;2612682;47;20183;-79
2022/01/09 03:16:44;;;;;;;3.10;2.80;;;5.00;99.90;;;;;;2614278;54;20402;-77
2022/01/09 03:19:10;;;;;;;2.90;2.40;;;5.00;99.90;;;;;;2614133;54;20208;-78
2022/01/09 03:21:36;;;;;;;5.57;4.07;;;5.10;99.90;;;;;;2612454;47;20277;-78
2022/01/09 03:24:01;;;;;;;4.30;3.80;;;5.10;99.90;;;;;;2609714;47;20408;-78
2022/01/09 03:26:27;;;;;;;3.73;3.03;;;5.10;99.90;;;;;;2611201;54;20411;-79
2022/01/09 03:28:54;;;;;;;4.83;3.80;;;5.20;99.90;;;;;;2612874;54;20162;-79
2022/01/09 03:31:20;;;;;;;6.63;3.77;;;5.20;99.90;;;;;;2613973;54;20222;-79
2022/01/09 03:33:46;;;;;;;2.37;1.90;;;5.20;99.90;;;;;;2614123;54;20992;-80
2022/01/09 03:36:11;;;;;;;2.90;2.17;;;5.20;99.90;;;;;;2614724;54;20187;-79
2022/01/09 03:38:37;;;;;;;2.33;2.00;;;5.20;99.90;;;;;;2611979;47;20454;-80
2022/01/09 03:41:03;;;;;;;3.17;2.23;;;5.30;99.90;;;;;;2612377;54;20648;-79
2022/01/09 03:43:30;;;;;;;3.03;1.83;;;5.30;99.90;;;;;;2612645;47;20420;-79
2022/01/09 03:45:56;;;;;;;3.50;1.70;;;5.30;99.90;;;;;;2613637;54;20155;-79
2022/01/09 03:48:22;;;;;;;1.43;1.33;;;5.20;99.90;;;;;;2614019;54;20435;-77
2022/01/09 03:50:51;;;;;;;1.40;1.23;;;5.20;99.90;;;;;;2612599;39;20576;-79
2022/01/09 03:53:17;;;;;;;1.57;1.40;;;5.30;99.90;;;;;;2614320;54;20400;-79
2022/01/09 03:55:43;;;;;;;1.43;1.13;;;5.20;99.90;;;;;;2614077;48;20464;-78
2022/01/09 03:58:09;;;;;;;2.83;1.20;;;5.20;99.90;;;;;;2613288;54;20423;-79
2022/01/09 04:00:34;;;;;;;1.33;1.17;;;5.20;99.90;;;;;;2612742;54;20404;-77
2022/01/09 04:03:00;;;;;;;4.40;1.63;;;5.20;99.90;;;;;;2612192;47;20427;-79
2022/01/09 04:05:26;;;;;;;2.30;1.60;;;5.20;99.90;;;;;;2613100;47;20150;-78
2022/01/09 04:07:52;;;;;;;2.03;1.83;;;5.20;99.90;;;;;;2613777;54;20147;-79
2022/01/09 04:10:22;;;;;;;3.30;1.50;;;5.20;99.90;;;;;;2612998;54;20419;-79
2022/01/09 04:12:50;;;;;;;2.53;1.90;;;5.30;99.90;;;;;;2613253;54;20937;-79
2022/01/09 04:15:17;;;;;;;2.10;1.57;;;5.20;99.90;;;;;;2613022;54;20472;-78
2022/01/09 04:20:11;;;;;;;2.27;1.97;;;5.30;99.90;;;;;;2612901;54;22305;-78
2022/01/09 04:22:37;;;;;;;4.63;1.93;;;5.30;99.90;;;;;;2612886;49;20463;-77
2022/01/09 04:25:04;;;;;;;5.03;1.70;;;5.30;99.90;;;;;;2614182;39;20890;-78
2022/01/09 04:27:30;;;;;;;4.97;1.30;;;5.30;99.90;;;;;;2614690;54;21310;-79
2022/01/09 04:29:56;;;;;;;1.70;0.93;;;5.30;99.90;;;;;;2614225;47;20416;-76
2022/01/09 04:32:22;;;;;;;1.03;1.00;;;5.40;99.90;;;;;;2614228;54;20514;-78
2022/01/09 04:34:48;;;;;;;1.90;1.40;;;5.40;99.90;;;;;;2612607;51;20514;-79
2022/01/09 04:37:14;;;;;;;4.73;1.20;;;5.40;99.90;;;;;;2613628;54;20420;-78
2022/01/09 04:39:41;;;;;;;3.17;2.13;;;5.30;99.90;;;;;;2613201;54;20420;-79
2022/01/09 04:42:07;;;;;;;6.80;2.50;;;5.40;99.90;;;;;;2615253;39;20592;-79
2022/01/09 04:44:33;;;;;;;9.40;2.13;;;5.40;99.90;;;;;;2614374;47;21411;-78
2022/01/09 04:47:04;;;;;;;10.93;2.97;;;5.50;99.90;;;;;;2613938;47;20455;-78
2022/01/09 04:49:36;;;;;;;20.43;6.70;;;5.50;99.90;;;;;;2613295;46;21038;-80
2022/01/09 04:52:04;;;;;;;10.23;3.70;;;5.60;99.90;;;;;;2612921;54;20488;-77
2022/01/09 04:54:30;;;;;;;15.63;4.73;;;5.70;99.90;;;;;;2613511;47;21289;-78
2022/01/09 04:56:56;;;;;;;5.80;2.70;;;5.70;99.90;;;;;;2613272;54;20438;-79
2022/01/09 04:59:22;;;;;;;12.00;4.00;;;5.80;99.90;;;;;;2613115;54;20155;-77
2022/01/09 05:01:47;;;;;;;14.90;4.20;;;5.90;99.90;;;;;;2613420;46;20181;-77
2022/01/09 05:04:13;;;;;;;10.27;4.47;;;5.90;99.90;;;;;;2613652;54;20143;-78
2022/01/09 05:06:39;;;;;;;28.33;6.57;;;6.00;99.90;;;;;;2614750;54;20705;-78
2022/01/09 05:09:05;;;;;;;25.47;6.83;;;6.00;99.90;;;;;;2613687;47;20449;-78
2022/01/09 05:11:31;;;;;;;13.97;3.93;;;6.00;99.90;;;;;;2614375;54;20282;-77
2022/01/09 05:13:57;;;;;;;19.93;6.13;;;6.00;99.90;;;;;;2612980;54;20177;-78
2022/01/09 05:16:22;;;;;;;17.20;5.93;;;6.00;99.90;;;;;;2614732;54;20643;-77
2022/01/09 05:18:54;;;;;;;20.43;5.60;;;6.10;99.90;;;;;;2613485;54;20548;-77
2022/01/09 05:21:20;;;;;;;12.60;4.60;;;6.10;99.90;;;;;;2613043;54;21161;-79
2022/01/09 05:23:46;;;;;;;15.13;3.23;;;6.00;99.90;;;;;;2614241;54;20423;-79
2022/01/09 05:26:13;;;;;;;20.27;5.57;;;6.10;99.90;;;;;;2614090;54;20167;-78
2022/01/09 05:28:39;;;;;;;11.97;4.57;;;6.00;99.90;;;;;;2614400;39;20551;-79
2022/01/09 05:31:05;;;;;;;23.03;5.30;;;6.00;99.90;;;;;;2613378;54;20411;-78
2022/01/09 05:33:30;;;;;;;15.80;4.00;;;6.00;99.90;;;;;;2613185;54;20411;-79
2022/01/09 05:35:56;;;;;;;13.10;4.13;;;6.00;99.90;;;;;;2614513;54;20171;-79
2022/01/09 05:38:22;;;;;;;12.40;3.97;;;6.00;99.90;;;;;;2613271;54;20159;-78
2022/01/09 05:40:48;;;;;;;21.77;6.40;;;5.90;99.90;;;;;;2612879;54;20151;-78
2022/01/09 05:43:14;;;;;;;9.20;4.87;;;5.90;99.90;;;;;;2613429;54;20230;-79
2022/01/09 05:45:40;;;;;;;12.97;5.57;;;5.90;99.90;;;;;;2614112;54;20181;-77
2022/01/09 05:48:07;;;;;;;7.23;4.47;;;5.90;99.90;;;;;;2613466;54;20431;-79
2022/01/09 05:50:34;;;;;;;8.70;3.37;;;5.90;99.90;;;;;;2611984;54;20957;-78
2022/01/09 05:53:00;;;;;;;26.87;7.70;;;5.90;99.90;;;;;;2614482;31;20940;-78
2022/01/09 05:55:26;;;;;;;14.63;5.47;;;5.90;99.90;;;;;;2614078;47;20439;-78
2022/01/09 05:57:52;;;;;;;7.20;4.47;;;5.90;99.90;;;;;;2613935;47;20472;-78
2022/01/09 06:00:19;;;;;;;22.63;6.00;;;5.90;99.90;;;;;;2612529;54;20415;-77
2022/01/09 06:02:45;;;;;;;19.80;7.40;;;5.90;99.90;;;;;;2614572;54;20143;-77
2022/01/09 06:05:11;;;;;;;18.57;6.80;;;5.90;99.90;;;;;;2614083;47;21135;-78
2022/01/09 06:07:41;;;;;;;18.30;4.93;;;5.90;99.90;;;;;;2614559;54;20440;-78
2022/01/09 06:10:09;;;;;;;10.57;4.00;;;5.90;99.90;;;;;;2613730;47;20427;-76
2022/01/09 06:12:34;;;;;;;11.60;4.57;;;5.90;99.90;;;;;;2612868;54;20407;-78
2022/01/09 06:15:00;;;;;;;10.87;4.80;;;5.90;99.90;;;;;;2613979;47;21005;-79
2022/01/09 06:17:26;;;;;;;18.57;6.20;;;5.90;99.90;;;;;;2614793;54;20873;-77
2022/01/09 06:19:52;;;;;;;16.40;5.47;;;5.90;99.90;;;;;;2613881;54;20388;-79
2022/01/09 06:22:18;;;;;;;15.87;5.07;;;5.90;99.90;;;;;;2612142;54;20459;-78
2022/01/09 06:24:50;;;;;;;9.03;3.43;;;5.90;99.90;;;;;;2613452;47;20416;-79
2022/01/09 06:27:21;;;;;;;6.17;4.23;;;5.90;99.90;;;;;;2614034;47;20546;-78
2022/01/09 06:29:48;;;;;;;19.47;4.40;;;5.80;99.90;;;;;;2613159;49;20535;-78
2022/01/09 06:32:14;;;;;;;11.60;5.20;;;5.80;99.90;;;;;;2612273;54;20446;-78
2022/01/09 06:34:41;;;;;;;17.17;5.40;;;5.90;99.90;;;;;;2614479;54;20443;-78
2022/01/09 06:37:07;;;;;;;8.40;4.10;;;5.80;99.90;;;;;;2614033;54;20967;-78
2022/01/09 06:39:34;;;;;;;17.50;4.97;;;5.80;99.90;;;;;;2613834;54;20427;-77
2022/01/09 06:42:00;;;;;;;22.93;5.07;;;5.80;99.90;;;;;;2613406;47;21475;-79
2022/01/09 06:44:26;;;;;;;8.30;3.80;;;5.80;99.90;;;;;;2614458;39;20817;-78
2022/01/09 06:46:52;;;;;;;13.03;4.77;;;5.80;99.90;;;;;;2613692;54;20416;-78
2022/01/09 06:49:19;;;;;;;13.83;4.77;;;5.80;99.90;;;;;;2613041;54;20155;-79
2022/01/09 06:51:45;;;;;;;16.20;4.50;;;5.80;99.90;;;;;;2612933;47;20193;-80
2022/01/09 06:54:13;;;;;;;9.17;3.57;;;5.70;99.90;;;;;;2612904;54;20407;-79
2022/01/09 06:56:39;;;;;;;14.93;5.27;;;5.70;99.90;;;;;;2613091;54;20999;-80
2022/01/09 06:59:05;;;;;;;13.10;5.23;;;5.70;99.90;;;;;;2614511;54;20417;-79
2022/01/09 07:01:31;;;;;;;11.93;3.80;;;5.70;99.90;;;;;;2613644;54;20440;-78
2022/01/09 07:03:57;;;;;;;8.47;4.30;;;5.70;99.90;;;;;;2613541;54;20444;-78
2022/01/09 07:06:23;;;;;;;9.63;3.37;;;5.70;99.90;;;;;;2613883;54;20166;-79
2022/01/09 07:08:49;;;;;;;3.40;2.53;;;5.60;99.90;;;;;;2614935;54;20420;-80
2022/01/09 07:11:15;;;;;;;8.77;3.03;;;5.60;99.90;;;;;;2615411;54;20144;-79
2022/01/09 07:13:41;;;;;;;8.77;3.10;;;5.60;99.90;;;;;;2614576;39;21102;-78
2022/01/09 07:16:06;;;;;;;10.53;3.40;;;5.60;99.90;;;;;;2615125;47;20400;-78
2022/01/09 07:18:32;;;;;;;9.23;4.73;;;5.50;99.90;;;;;;2620028;47;20419;-78
2022/01/09 07:20:58;;;;;;;5.67;2.80;;;5.50;99.90;;;;;;2616959;51;20526;-79
2022/01/09 07:23:24;;;;;;;9.33;3.40;;;5.50;99.90;;;;;;2616750;54;20530;-79
2022/01/09 07:25:50;;;;;;;17.70;7.23;;;5.50;99.90;;;;;;2617002;54;20948;-79
2022/01/09 07:28:16;;;;;;;12.83;3.50;;;5.50;99.90;;;;;;2615284;47;20979;-78
2022/01/09 07:30:42;;;;;;;10.13;4.00;;;5.50;99.90;;;;;;2615402;54;20403;-80
2022/01/09 07:33:09;;;;;;;7.97;3.33;;;5.50;99.90;;;;;;2613208;54;20415;-81
2022/01/09 07:35:35;;;;;;;9.43;4.20;;;5.50;99.90;;;;;;2613757;47;20411;-80
2022/01/09 07:38:03;;;;;;;2.63;2.07;;;5.40;99.90;;;;;;2614042;54;20511;-80
2022/01/09 07:40:29;;;;;;;5.87;4.03;;;5.50;99.90;;;;;;2613883;47;20699;-83
2022/01/09 07:42:55;;;;;;;6.27;3.40;;;5.50;99.90;;;;;;2614971;54;20445;-80
2022/01/09 07:45:26;;;;;;;5.73;4.20;;;5.50;99.90;;;;;;2612023;54;20155;-80
2022/01/09 07:47:53;;;;;;;11.83;4.90;;;5.50;99.90;;;;;;2611292;47;20424;-79
2022/01/09 07:50:19;;;;;;;5.33;3.70;;;5.50;99.90;;;;;;2613434;54;20410;-81
2022/01/09 07:52:45;;;;;;;9.93;4.43;;;5.50;99.90;;;;;;2612027;54;20423;-79
2022/01/09 07:55:12;;;;;;;9.80;3.60;;;5.50;99.90;;;;;;2611968;39;21042;-80
2022/01/09 07:57:38;;;;;;;7.53;3.07;;;5.50;99.90;;;;;;2613965;47;21003;-79
2022/01/09 08:00:09;;;;;;;11.37;3.63;;;5.50;99.90;;;;;;2612765;46;20572;-80
2022/01/09 08:02:42;;;;;;;8.03;4.03;;;5.50;99.90;;;;;;2613710;39;21199;-80
2022/01/09 08:05:09;;;;;;;9.17;4.10;;;5.50;99.90;;;;;;2613863;39;20514;-77
2022/01/09 08:07:35;;;;;;;16.33;3.67;;;5.50;99.90;;;;;;2614042;54;20548;-77
2022/01/09 08:10:02;;;;;;;11.70;5.73;;;5.50;99.90;;;;;;2611364;54;20420;-79
2022/01/09 08:12:28;;;;;;;6.33;4.90;;;5.50;99.90;;;;;;2609928;54;20428;-82
2022/01/09 08:14:53;;;;;;;5.67;3.17;;;5.50;99.90;;;;;;2611507;39;20814;-80
2022/01/09 08:17:19;;;;;;;13.30;3.60;;;5.50;99.90;;;;;;2612692;54;20514;-80
2022/01/09 08:19:45;;;;;;;7.00;5.63;;;5.50;99.90;;;;;;2610503;54;20762;-80
2022/01/09 08:22:11;;;;;;;11.77;4.57;;;5.50;99.90;;;;;;2610892;39;20956;-80
2022/01/09 08:24:39;;;;;;;11.33;3.73;;;5.60;99.90;;;;;;2609711;54;21270;-78
2022/01/09 08:27:07;;;;;;;4.90;3.60;;;5.50;99.90;;;;;;2610532;54;20412;-79
2022/01/09 08:29:34;;;;;;;11.40;4.43;;;5.50;99.90;;;;;;2612809;54;20404;-79
2022/01/09 08:32:01;;;;;;;8.10;2.57;;;5.50;99.90;;;;;;2612112;54;20451;-80
2022/01/09 08:34:27;;;;;;;7.03;4.03;;;5.50;99.90;;;;;;2611042;47;21029;-79
2022/01/09 08:36:53;;;;;;;4.27;3.40;;;5.50;99.90;;;;;;2613207;54;21264;-79
2022/01/09 08:39:19;;;;;;;13.07;5.40;;;5.60;99.90;;;;;;2613235;54;20424;-78
2022/01/09 08:41:44;;;;;;;6.10;5.30;;;5.60;99.90;;;;;;2614152;39;20840;-80
2022/01/09 08:47:43;;;;;;;7.90;3.90;;;5.60;99.90;;;;;;2612818;54;20471;-79
2022/01/09 08:50:11;;;;;;;6.40;3.63;;;5.50;99.90;;;;;;2612764;51;20435;-81
2022/01/09 08:52:37;;;;;;;10.00;3.80;;;5.50;99.90;;;;;;2612506;54;21128;-79
2022/01/09 08:55:05;;;;;;;21.23;5.77;;;5.50;99.90;;;;;;2610463;54;20407;-77
2022/01/09 08:57:31;;;;;;;7.20;4.67;;;5.50;99.90;;;;;;2628328;36;20404;-79
2022/01/09 08:59:57;;;;;;;11.30;4.50;;;5.50;99.90;;;;;;2611160;54;20415;-78
2022/01/09 09:02:22;;;;;;;4.93;4.47;;;5.50;99.90;;;;;;2609661;54;21047;-77
2022/01/09 09:04:48;;;;;;;18.97;4.23;;;5.50;99.90;;;;;;2606531;54;20408;-78
2022/01/09 09:07:18;;;;;;;5.70;3.30;;;5.50;99.90;;;;;;2612121;54;20278;-79
2022/01/09 09:09:45;;;;;;;6.63;3.70;;;5.50;99.90;;;;;;2612237;54;20395;-78
2022/01/09 09:12:11;;;;;;;4.93;3.07;;;5.60;99.90;;;;;;2612063;54;20971;-77
2022/01/09 09:14:37;;;;;;;7.60;3.60;;;5.60;99.90;;;;;;2613319;54;21033;-80
2022/01/09 09:17:03;;;;;;;13.10;5.20;;;5.60;99.90;;;;;;2611456;54;20430;-78
2022/01/09 09:19:30;;;;;;;4.33;3.40;;;5.60;99.90;;;;;;2612380;47;21060;-80
2022/01/09 09:21:56;;;;;;;4.37;3.90;;;5.60;99.90;;;;;;2613162;39;20799;-77
2022/01/09 09:24:21;;;;;;;9.83;3.97;;;5.60;99.90;;;;;;2613728;54;20483;-78
2022/01/09 09:26:48;;;;;;;11.63;4.70;;;5.70;99.90;;;;;;2611961;47;20250;-78
2022/01/09 09:29:14;;;;;;;15.80;6.00;;;5.70;99.90;;;;;;2612133;54;20154;-77
2022/01/09 09:31:40;;;;;;;10.40;3.67;;;5.70;99.90;;;;;;2611939;47;21393;-78
2022/01/09 09:34:08;;;;;;;7.47;4.03;;;5.70;99.90;;;;;;2612556;39;20922;-77
2022/01/09 09:36:35;;;;;;;11.10;4.73;;;5.60;99.90;;;;;;2613206;47;20158;-78
2022/01/09 09:39:05;;;;;;;5.93;4.37;;;5.70;99.90;;;;;;2612757;54;20510;-80
2022/01/09 09:41:31;;;;;;;8.13;5.00;;;5.70;99.90;;;;;;2613394;54;20400;-78
2022/01/09 09:43:57;;;;;;;13.70;5.90;;;5.70;99.90;;;;;;2613161;54;20403;-78
2022/01/09 09:46:24;;;;;;;10.13;5.13;;;5.80;99.90;;;;;;2611364;47;20423;-76
2022/01/09 09:48:53;;;;;;;4.47;3.47;;;5.70;99.90;;;;;;2612049;47;20441;-78
2022/01/09 09:51:20;;;;;;;5.60;2.97;;;5.80;99.90;;;;;;2612458;47;20425;-78
2022/01/09 09:53:46;;;;;;;8.37;4.10;;;5.80;99.90;;;;;;2612895;47;20419;-80
2022/01/09 09:56:12;;;;;;;12.13;3.33;;;5.90;99.90;;;;;;2611867;54;20420;-79
2022/01/09 09:58:41;;;;;;;6.50;3.80;;;6.00;99.90;;;;;;2613018;54;20447;-77
2022/01/09 10:01:20;;;;;;;3.90;2.80;;;5.80;99.90;;;;;;2611434;54;20368;-78
2022/01/09 10:04:00;;;;;;;9.53;5.00;;;6.10;99.90;;;;;;2612485;54;20424;-79
2022/01/09 10:06:43;;;;;;;13.17;4.90;;;6.20;99.90;;;;;;2609919;54;20423;-79
2022/01/09 10:09:14;;;;;;;8.57;3.10;;;6.40;99.90;;;;;;2612211;51;20431;-79
2022/01/09 10:12:04;;;;;;;4.90;3.07;;;6.40;99.90;;;;;;2612459;54;20412;-77
2022/01/09 10:14:32;;;;;;;13.53;5.10;;;6.60;99.90;;;;;;2612381;54;20447;-78
2022/01/09 10:17:09;;;;;;;5.57;3.10;;;6.40;99.90;;;;;;2611677;50;20436;-78
2022/01/09 10:19:47;;;;;;;5.93;3.87;;;6.20;99.90;;;;;;2612514;39;20801;-80
2022/01/09 10:22:39;;;;;;;6.83;4.87;;;6.10;99.90;;;;;;2611896;54;20507;-80
2022/01/09 10:25:37;;;;;;;18.23;6.57;;;6.10;99.90;;;;;;2605156;54;20427;-78
2022/01/09 10:28:07;;;;;;;12.37;4.60;;;6.10;99.90;;;;;;2611294;54;20422;-78
2022/01/09 10:30:40;;;;;;;12.13;5.00;;;6.20;99.90;;;;;;2612586;39;20874;-79
2022/01/09 10:33:15;;;;;;;9.20;5.00;;;6.40;99.90;;;;;;2612396;54;20464;-79
2022/01/09 10:35:44;;;;;;;13.23;5.70;;;6.50;99.90;;;;;;2613251;54;20412;-78
2022/01/09 10:38:22;;;;;;;12.90;4.47;;;6.40;99.90;;;;;;2612490;47;20424;-78
2022/01/09 10:40:54;;;;;;;5.37;4.10;;;6.20;99.90;;;;;;2612934;54;20403;-78
2022/01/09 10:43:35;;;;;;;5.13;4.67;;;6.00;99.90;;;;;;2612072;54;20442;-78
2022/01/09 10:46:03;;;;;;;4.13;2.83;;;6.10;99.90;;;;;;2612950;39;20740;-79
2022/01/09 10:48:32;;;;;;;6.10;4.40;;;6.20;99.90;;;;;;2612320;54;20442;-79
2022/01/09 10:51:00;;;;;;;8.77;4.30;;;6.00;99.90;;;;;;2612226;47;20402;-78
2022/01/09 10:53:31;;;;;;;5.10;4.43;;;6.00;99.90;;;;;;2613199;54;20408;-78
2022/01/09 10:56:16;;;;;;;13.77;5.70;;;6.00;99.90;;;;;;2611938;54;20413;-79
2022/01/09 10:58:46;;;;;;;8.70;5.70;;;6.10;99.90;;;;;;2611797;47;20459;-78
2022/01/09 11:01:23;;;;;;;11.63;5.70;;;6.10;99.90;;;;;;2612414;47;20427;-77
2022/01/09 11:03:53;;;;;;;14.70;5.90;;;6.00;99.90;;;;;;2613154;47;20419;-80
2022/01/09 11:06:20;;;;;;;7.77;5.93;;;6.00;99.90;;;;;;2609276;47;20427;-77
2022/01/09 11:08:47;;;;;;;16.87;5.77;;;6.10;99.90;;;;;;2611287;54;20510;-78
2022/01/09 11:11:48;;;;;;;14.63;5.60;;;6.30;99.90;;;;;;2614035;54;20443;-79
2022/01/09 11:14:16;;;;;;;12.53;5.40;;;6.40;99.90;;;;;;2612595;47;20423;-79
2022/01/09 11:16:51;;;;;;;5.67;3.67;;;6.60;99.90;;;;;;2613554;54;20419;-79
2022/01/09 11:19:19;;;;;;;8.30;5.53;;;6.50;99.90;;;;;;2613129;54;20461;-78
2022/01/09 11:21:47;;;;;;;6.60;4.10;;;6.50;99.90;;;;;;2613800;54;20482;-78
2022/01/09 11:24:41;;;;;;;6.47;3.40;;;6.60;99.90;;;;;;2612360;47;20956;-78
2022/01/09 11:27:37;;;;;;;8.80;5.77;;;6.30;99.90;;;;;;2612285;54;20412;-79
2022/01/09 11:30:09;;;;;;;5.70;4.70;;;6.40;99.90;;;;;;2613521;39;21086;-79
2022/01/09 11:32:56;;;;;;;11.73;4.93;;;6.00;99.90;;;;;;2614029;54;20936;-79
2022/01/09 11:35:31;;;;;;;12.67;6.03;;;6.10;99.90;;;;;;2614342;54;20460;-79
2022/01/09 11:38:25;;;;;;;11.63;6.43;;;6.40;99.90;;;;;;2613631;47;20431;-77
2022/01/09 11:40:52;;;;;;;9.80;6.20;;;6.40;99.90;;;;;;2613483;54;20411;-79
2022/01/09 11:43:20;;;;;;;9.30;5.67;;;6.40;99.90;;;;;;2613222;47;20968;-79
2022/01/09 11:46:02;;;;;;;9.40;5.83;;;6.50;99.90;;;;;;2613734;54;20452;-80
2022/01/09 11:49:04;;;;;;;7.80;5.57;;;6.50;99.90;;;;;;2612965;47;20423;-79
2022/01/09 11:51:36;;;;;;;10.63;6.40;;;6.50;99.90;;;;;;2613795;47;20427;-79
2022/01/09 11:54:11;;;;;;;10.10;5.13;;;6.50;99.90;;;;;;2613718;54;20412;-80
2022/01/09 11:57:06;;;;;;;8.43;7.60;;;6.60;99.90;;;;;;2610930;47;20959;-78
2022/01/09 11:59:38;;;;;;;14.60;6.57;;;6.60;99.90;;;;;;2608202;47;20525;-79
2022/01/09 12:02:29;;;;;;;7.27;5.90;;;6.40;99.90;;;;;;2612148;46;20439;-81
2022/01/09 12:05:09;;;;;;;5.53;3.80;;;6.10;99.90;;;;;;2612566;47;20415;-79
2022/01/09 12:07:34;;;;;;;12.50;6.80;;;6.10;99.90;;;;;;2613001;47;20795;-80
2022/01/09 12:10:24;;;;;;;10.00;6.37;;;6.00;99.90;;;;;;2614148;54;20419;-81
2022/01/09 12:12:51;;;;;;;9.40;4.63;;;6.00;99.90;;;;;;2612318;31;20616;-80
2022/01/09 12:15:52;;;;;;;9.30;5.33;;;6.10;99.90;;;;;;2612510;47;20843;-78
2022/01/09 12:18:47;;;;;;;16.87;5.90;;;6.20;99.90;;;;;;2610973;47;21057;-79
2022/01/09 12:21:37;;;;;;;14.77;6.40;;;6.30;99.90;;;;;;2610351;47;20452;-79
2022/01/09 12:24:37;;;;;;;14.40;6.57;;;6.20;99.90;;;;;;2612917;54;20419;-79
2022/01/09 12:27:35;;;;;;;11.10;4.90;;;6.30;99.90;;;;;;2612902;54;20415;-80
2022/01/09 12:30:03;;;;;;;7.73;5.00;;;6.40;99.90;;;;;;2609506;47;20443;-81
2022/01/09 12:32:44;;;;;;;10.13;4.30;;;6.30;99.90;;;;;;2610726;47;20480;-78
2022/01/09 12:35:20;;;;;;;8.77;5.27;;;6.30;99.90;;;;;;2612279;47;20431;-77
2022/01/09 12:37:48;;;;;;;8.03;5.03;;;6.30;99.90;;;;;;2611650;54;20431;-79
2022/01/09 12:40:18;;;;;;;8.77;5.20;;;6.20;99.90;;;;;;2611950;47;20422;-81
2022/01/09 12:42:46;;;;;;;12.60;6.67;;;6.20;99.90;;;;;;2612484;47;21053;-81
2022/01/09 12:45:27;;;;;;;8.43;5.30;;;6.30;99.90;;;;;;2611878;47;20536;-80
2022/01/09 12:47:55;;;;;;;6.00;4.60;;;6.20;99.90;;;;;;2610773;54;20391;-78
2022/01/09 12:50:33;;;;;;;10.43;5.77;;;6.30;99.90;;;;;;2610739;54;20443;-80
2022/01/09 12:53:19;;;;;;;12.47;5.63;;;6.60;99.90;;;;;;2613973;49;20542;-79
2022/01/09 12:56:02;;;;;;;7.37;6.53;;;6.80;99.90;;;;;;2613384;54;20434;-81
2022/01/09 12:58:32;;;;;;;8.30;4.43;;;7.10;99.90;;;;;;2613986;54;20419;-82
2022/01/09 13:04:35;;;;;;;7.57;5.80;;;6.80;99.90;;;;;;2611458;54;20402;-82
2022/01/09 13:07:01;;;;;;;10.40;6.10;;;7.10;99.90;;;;;;2612616;47;20476;-81
2022/01/09 13:09:29;;;;;;;10.00;5.70;;;7.30;99.90;;;;;;2610643;47;20980;-78
2022/01/09 13:11:58;;;;;;;14.50;4.07;;;7.50;99.90;;;;;;2613696;54;21044;-81
2022/01/09 13:14:24;;;;;;;6.63;4.70;;;7.00;99.90;;;;;;2612721;46;20434;-80